createdAt,value
2016-05-20T00:00:12.813Z,0
2016-05-20T00:01:12.660Z,0
2016-05-20T00:02:12.819Z,0
2016-05-20T00:03:12.806Z,0
2016-05-20T00:04:12.824Z,0
2016-05-20T00:05:12.811Z,0
2016-05-20T00:06:12.829Z,0
2016-05-20T00:07:12.817Z,0
2016-05-20T00:08:12.648Z,0
2016-05-20T00:09:12.806Z,0
2016-05-20T00:10:12.809Z,0
2016-05-20T00:11:12.812Z,0
2016-05-20T00:12:12.814Z,0
2016-05-20T00:13:12.817Z,0
2016-05-20T00:14:12.647Z,0
2016-05-20T00:15:12.823Z,0
2016-05-20T00:16:12.810Z,0
2016-05-20T00:17:12.797Z,0
2016-05-20T00:18:12.800Z,0
2016-05-20T00:19:12.661Z,0
2016-05-20T00:20:12.805Z,0
2016-05-20T00:21:12.808Z,0
2016-05-20T00:22:12.826Z,0
2016-05-20T00:23:12.813Z,0
2016-05-20T00:24:12.832Z,0
2016-05-20T00:25:12.802Z,0
2016-05-20T00:26:12.805Z,0
2016-05-20T00:27:12.792Z,0
2016-05-20T00:28:12.810Z,0
2016-05-20T00:29:12.813Z,0
2016-05-20T00:30:12.644Z,0
2016-05-20T00:31:12.819Z,0
2016-05-20T00:32:12.806Z,0
2016-05-20T00:33:12.668Z,0
2016-05-20T00:34:12.812Z,0
2016-05-20T00:35:12.799Z,0
2016-05-20T00:36:12.504Z,0
2016-05-20T00:37:12.648Z,0
2016-05-20T00:38:12.806Z,0
2016-05-20T00:39:12.684Z,0
2016-05-20T00:40:12.656Z,0
2016-05-20T00:41:12.814Z,0
2016-05-20T00:42:12.817Z,0
2016-05-20T00:43:12.647Z,0
2016-05-20T00:44:12.806Z,0
2016-05-20T00:45:12.795Z,0
2016-05-20T00:46:12.797Z,0
2016-05-20T00:47:12.643Z,0
2016-05-20T00:48:12.630Z,0
2016-05-20T00:49:12.649Z,0
2016-05-20T00:50:12.808Z,0
2016-05-20T00:51:12.794Z,0
2016-05-20T00:52:12.813Z,0
2016-05-20T00:53:12.800Z,0
2016-05-20T00:54:12.943Z,0
2016-05-20T00:55:12.805Z,0
2016-05-20T00:56:12.652Z,0
2016-05-20T00:57:12.810Z,0
2016-05-20T00:58:12.813Z,0
2016-05-20T00:59:12.801Z,0
2016-05-20T01:00:12.788Z,0
2016-05-20T01:01:12.806Z,0
2016-05-20T01:02:12.652Z,0
2016-05-20T01:03:12.796Z,0
2016-05-20T01:04:12.799Z,0
2016-05-20T01:05:12.801Z,0
2016-05-20T01:06:12.804Z,0
2016-05-20T01:07:12.978Z,0
2016-05-20T01:08:12.887Z,0
2016-05-20T01:09:12.515Z,0
2016-05-20T01:10:12.767Z,0
2016-05-20T01:11:12.848Z,0
2016-05-20T01:12:12.803Z,0
2016-05-20T01:13:12.822Z,0
2016-05-20T01:14:12.795Z,0
2016-05-20T01:15:12.780Z,0
2016-05-20T01:16:12.658Z,0
2016-05-20T01:17:12.645Z,0
2016-05-20T01:18:12.789Z,0
2016-05-20T01:19:12.792Z,0
2016-05-20T01:20:12.810Z,0
2016-05-20T01:21:12.656Z,0
2016-05-20T01:22:12.643Z,0
2016-05-20T01:23:12.818Z,0
2016-05-20T01:24:12.821Z,0
2016-05-20T01:25:12.791Z,0
2016-05-20T01:26:12.638Z,0
2016-05-20T01:27:12.641Z,0
2016-05-20T01:28:12.644Z,0
2016-05-20T01:29:12.647Z,0
2016-05-20T01:30:12.790Z,0
2016-05-20T01:31:12.637Z,0
2016-05-20T01:32:12.796Z,0
2016-05-20T01:33:12.626Z,0
2016-05-20T01:34:12.785Z,0
2016-05-20T01:35:12.788Z,0
2016-05-20T01:36:12.806Z,0
2016-05-20T01:37:12.793Z,0
2016-05-20T01:38:12.640Z,0
2016-05-20T01:39:13.079Z,0
2016-05-20T01:40:12.645Z,0
2016-05-20T01:41:12.788Z,0
2016-05-20T01:42:12.807Z,0
2016-05-20T01:43:12.795Z,0
2016-05-20T01:44:12.796Z,0
2016-05-20T01:45:12.800Z,0
2016-05-20T01:46:12.645Z,0
2016-05-20T01:47:12.789Z,0
2016-05-20T01:48:12.792Z,0
2016-05-20T01:49:12.794Z,0
2016-05-20T01:50:12.797Z,0
2016-05-20T01:51:12.783Z,0
2016-05-20T01:52:12.630Z,0
2016-05-20T01:53:12.789Z,0
2016-05-20T01:54:12.791Z,0
2016-05-20T01:55:12.794Z,0
2016-05-20T01:56:12.782Z,0
2016-05-20T01:57:12.628Z,0
2016-05-20T01:58:12.787Z,0
2016-05-20T01:59:12.790Z,0
2016-05-20T02:00:12.793Z,0
2016-05-20T02:01:12.780Z,0
2016-05-20T02:02:12.641Z,0
2016-05-20T02:03:12.629Z,0
2016-05-20T02:04:12.615Z,0
2016-05-20T02:05:12.790Z,0
2016-05-20T02:06:12.621Z,0
2016-05-20T02:07:12.795Z,0
2016-05-20T02:08:12.782Z,0
2016-05-20T02:09:12.801Z,0
2016-05-20T02:10:12.460Z,0
2016-05-20T02:11:12.620Z,0
2016-05-20T02:12:12.779Z,0
2016-05-20T02:13:12.781Z,0
2016-05-20T02:14:12.784Z,0
2016-05-20T02:15:12.786Z,0
2016-05-20T02:16:12.788Z,0
2016-05-20T02:17:12.776Z,0
2016-05-20T02:18:12.622Z,0
2016-05-20T02:19:12.766Z,0
2016-05-20T02:20:12.769Z,0
2016-05-20T02:21:12.786Z,0
2016-05-20T02:22:12.617Z,0
2016-05-20T02:23:12.776Z,0
2016-05-20T02:24:12.717Z,0
2016-05-20T02:25:12.766Z,0
2016-05-20T02:26:12.785Z,0
2016-05-20T02:27:12.788Z,0
2016-05-20T02:28:12.790Z,0
2016-05-20T02:29:12.777Z,0
2016-05-20T02:30:12.763Z,0
2016-05-20T02:31:12.610Z,0
2016-05-20T02:32:12.629Z,0
2016-05-20T02:33:12.771Z,0
2016-05-20T02:34:12.774Z,0
2016-05-20T02:35:12.776Z,0
2016-05-20T02:36:12.623Z,0
2016-05-20T02:37:12.876Z,0
2016-05-20T02:38:12.770Z,0
2016-05-20T02:39:12.710Z,0
2016-05-20T02:40:12.666Z,0
2016-05-20T02:41:12.528Z,0
2016-05-20T02:42:12.828Z,0
2016-05-20T02:43:12.768Z,0
2016-05-20T02:44:12.661Z,0
2016-05-20T02:45:12.632Z,0
2016-05-20T02:46:12.838Z,0
2016-05-20T02:47:12.762Z,0
2016-05-20T02:48:12.625Z,0
2016-05-20T02:49:12.768Z,0
2016-05-20T02:50:12.770Z,0
2016-05-20T02:51:12.773Z,0
2016-05-20T02:52:12.761Z,0
2016-05-20T02:53:12.748Z,0
2016-05-20T02:54:12.610Z,0
2016-05-20T02:55:12.753Z,0
2016-05-20T02:56:12.772Z,0
2016-05-20T02:57:12.774Z,0
2016-05-20T02:58:12.605Z,0
2016-05-20T02:59:12.763Z,0
2016-05-20T03:00:12.751Z,0
2016-05-20T03:01:12.754Z,0
2016-05-20T03:02:12.772Z,0
2016-05-20T03:03:12.447Z,4
2016-05-20T03:04:12.761Z,4
2016-05-20T03:05:12.749Z,0
2016-05-20T03:06:12.595Z,4
2016-05-20T03:07:12.598Z,4
2016-05-20T03:08:12.741Z,0
2016-05-20T03:09:12.900Z,4
2016-05-20T03:10:12.746Z,8
2016-05-20T03:11:12.749Z,4
2016-05-20T03:12:12.595Z,4
2016-05-20T03:13:12.754Z,8
2016-05-20T03:14:12.756Z,8
2016-05-20T03:15:12.759Z,12
2016-05-20T03:16:12.591Z,12
2016-05-20T03:17:12.609Z,12
2016-05-20T03:18:12.595Z,16
2016-05-20T03:19:12.756Z,16
2016-05-20T03:20:12.586Z,20
2016-05-20T03:21:12.744Z,20
2016-05-20T03:22:12.747Z,28
2016-05-20T03:23:12.734Z,32
2016-05-20T03:24:12.768Z,36
2016-05-20T03:25:12.443Z,40
2016-05-20T03:26:12.728Z,48
2016-05-20T03:27:12.744Z,52
2016-05-20T03:28:12.747Z,60
2016-05-20T03:29:12.750Z,68
2016-05-20T03:30:12.753Z,80
2016-05-20T03:31:12.600Z,92
2016-05-20T03:32:12.758Z,100
2016-05-20T03:33:12.746Z,116
2016-05-20T03:34:12.607Z,128
2016-05-20T03:35:12.579Z,140
2016-05-20T03:36:12.738Z,160
2016-05-20T03:37:12.740Z,172
2016-05-20T03:38:12.728Z,192
2016-05-20T03:39:12.824Z,212
2016-05-20T03:40:12.577Z,228
2016-05-20T03:41:12.720Z,248
2016-05-20T03:42:12.723Z,272
2016-05-20T03:43:12.726Z,296
2016-05-20T03:44:12.729Z,328
2016-05-20T03:45:12.731Z,352
2016-05-20T03:46:12.593Z,388
2016-05-20T03:47:12.720Z,420
2016-05-20T03:48:12.723Z,456
2016-05-20T03:49:12.569Z,492
2016-05-20T03:50:12.728Z,528
2016-05-20T03:51:12.731Z,564
2016-05-20T03:52:12.734Z,600
2016-05-20T03:53:12.722Z,640
2016-05-20T03:54:12.959Z,676
2016-05-20T03:55:12.774Z,716
2016-05-20T03:56:12.589Z,760
2016-05-20T03:57:12.733Z,800
2016-05-20T03:58:12.578Z,856
2016-05-20T03:59:12.425Z,944
2016-05-20T04:00:12.568Z,1008
2016-05-20T04:01:12.727Z,1056
2016-05-20T04:02:12.558Z,1140
2016-05-20T04:03:12.733Z,1228
2016-05-20T04:04:12.719Z,1284
2016-05-20T04:05:12.566Z,1348
2016-05-20T04:06:12.710Z,1416
2016-05-20T04:07:12.713Z,1476
2016-05-20T04:08:12.574Z,1488
2016-05-20T04:09:13.014Z,1564
2016-05-20T04:10:12.736Z,1612
2016-05-20T04:11:12.723Z,1700
2016-05-20T04:12:12.710Z,1764
2016-05-20T04:13:12.728Z,1868
2016-05-20T04:14:12.575Z,1972
2016-05-20T04:15:12.718Z,2076
2016-05-20T04:16:12.737Z,2168
2016-05-20T04:17:12.724Z,2252
2016-05-20T04:18:12.726Z,2328
2016-05-20T04:19:12.729Z,2420
2016-05-20T04:20:12.717Z,2612
2016-05-20T04:21:12.719Z,2772
2016-05-20T04:22:12.722Z,2944
2016-05-20T04:23:12.724Z,2772
2016-05-20T04:24:12.742Z,2400
2016-05-20T04:25:12.558Z,2324
2016-05-20T04:26:12.716Z,2436
2016-05-20T04:27:12.563Z,2776
2016-05-20T04:28:12.721Z,3344
2016-05-20T04:29:12.568Z,3876
2016-05-20T04:30:12.728Z,4396
2016-05-20T04:31:12.714Z,4792
2016-05-20T04:32:12.561Z,5248
2016-05-20T04:33:12.719Z,5292
2016-05-20T04:34:12.722Z,5636
2016-05-20T04:35:12.725Z,5964
2016-05-20T04:36:12.571Z,6284
2016-05-20T04:37:12.730Z,6744
2016-05-20T04:38:12.717Z,7268
2016-05-20T04:39:12.721Z,7336
2016-05-20T04:40:12.646Z,7792
2016-05-20T04:41:12.569Z,8408
2016-05-20T04:42:12.744Z,8756
2016-05-20T04:43:12.731Z,8784
2016-05-20T04:44:12.718Z,8960
2016-05-20T04:45:12.580Z,9144
2016-05-20T04:46:12.723Z,9284
2016-05-20T04:47:12.585Z,9740
2016-05-20T04:48:12.744Z,9928
2016-05-20T04:49:12.747Z,9884
2016-05-20T04:50:12.578Z,10412
2016-05-20T04:51:12.580Z,10448
2016-05-20T04:52:12.740Z,10472
2016-05-20T04:53:12.586Z,11220
2016-05-20T04:54:13.526Z,11452
2016-05-20T04:55:12.748Z,10984
2016-05-20T04:56:12.750Z,9668
2016-05-20T04:57:12.752Z,9848
2016-05-20T04:58:12.755Z,10592
2016-05-20T04:59:12.758Z,10072
2016-05-20T05:00:12.761Z,9384
2016-05-20T05:01:12.794Z,10536
2016-05-20T05:02:12.767Z,9856
2016-05-20T05:03:12.596Z,8232
2016-05-20T05:04:12.771Z,11284
2016-05-20T05:05:12.759Z,11628
2016-05-20T05:06:12.465Z,10348
2016-05-20T05:07:12.796Z,6960
2016-05-20T05:08:12.782Z,8772
2016-05-20T05:09:12.785Z,9820
2016-05-20T05:10:12.804Z,9952
2016-05-20T05:11:12.790Z,9384
2016-05-20T05:12:12.793Z,9836
2016-05-20T05:13:12.795Z,9252
2016-05-20T05:14:12.798Z,10208
2016-05-20T05:15:12.785Z,10696
2016-05-20T05:16:12.788Z,11180
2016-05-20T05:17:12.791Z,8512
2016-05-20T05:18:12.809Z,7300
2016-05-20T05:19:12.656Z,5692
2016-05-20T05:20:12.815Z,8776
2016-05-20T05:21:12.662Z,8740
2016-05-20T05:22:12.820Z,7516
2016-05-20T05:23:12.822Z,6812
2016-05-20T05:24:12.685Z,6980
2016-05-20T05:25:13.000Z,7940
2016-05-20T05:26:12.830Z,10752
2016-05-20T05:27:12.849Z,13392
2016-05-20T05:28:12.680Z,15004
2016-05-20T05:29:12.683Z,18656
2016-05-20T05:30:12.842Z,22784
2016-05-20T05:31:12.844Z,20512
2016-05-20T05:32:12.863Z,13512
2016-05-20T05:33:12.850Z,6764
2016-05-20T05:34:12.853Z,6596
2016-05-20T05:35:12.871Z,6216
2016-05-20T05:36:12.858Z,6212
2016-05-20T05:37:12.876Z,6028
2016-05-20T05:38:12.910Z,6384
2016-05-20T05:39:12.866Z,7104
2016-05-20T05:40:12.962Z,8140
2016-05-20T05:41:12.872Z,8772
2016-05-20T05:42:12.905Z,9276
2016-05-20T05:43:12.892Z,7352
2016-05-20T05:44:12.896Z,6920
2016-05-20T05:45:12.725Z,9136
2016-05-20T05:46:12.901Z,11020
2016-05-20T05:47:12.903Z,10812
2016-05-20T05:48:12.609Z,12320
2016-05-20T05:49:12.751Z,14492
2016-05-20T05:50:12.912Z,18368
2016-05-20T05:51:12.914Z,20608
2016-05-20T05:52:12.604Z,21984
2016-05-20T05:53:12.919Z,23584
2016-05-20T05:54:12.937Z,25184
2016-05-20T05:55:13.347Z,26784
2016-05-20T05:56:12.942Z,28128
2016-05-20T05:57:12.946Z,29152
2016-05-20T05:58:12.948Z,30848
2016-05-20T05:59:12.839Z,31328
2016-05-20T06:00:13.011Z,31712
2016-05-20T06:01:12.902Z,33344
2016-05-20T06:02:12.950Z,34016
2016-05-20T06:03:13.153Z,34816
2016-05-20T06:04:13.207Z,32640
2016-05-20T06:05:13.210Z,32064
2016-05-20T06:06:13.229Z,33024
2016-05-20T06:07:13.092Z,34016
2016-05-20T06:08:13.283Z,36032
2016-05-20T06:09:13.299Z,35680
2016-05-20T06:10:13.244Z,34016
2016-05-20T06:11:13.159Z,36064
2016-05-20T06:12:13.324Z,37248
2016-05-20T06:13:13.363Z,38944
2016-05-20T06:14:13.355Z,39872
2016-05-20T06:15:13.360Z,39104
2016-05-20T06:16:13.379Z,39552
2016-05-20T06:17:13.400Z,40800
2016-05-20T06:18:13.389Z,41056
2016-05-20T06:19:13.222Z,40928
2016-05-20T06:20:13.396Z,41568
2016-05-20T06:21:13.245Z,41024
2016-05-20T06:22:13.278Z,42400
2016-05-20T06:23:13.439Z,41152
2016-05-20T06:24:13.411Z,38624
2016-05-20T06:25:13.679Z,37120
2016-05-20T06:26:13.433Z,35520
2016-05-20T06:27:13.451Z,32448
2016-05-20T06:28:13.454Z,34240
2016-05-20T06:29:13.145Z,33728
2016-05-20T06:30:13.459Z,31936
2016-05-20T06:31:13.478Z,34624
2016-05-20T06:32:13.497Z,33248
2016-05-20T06:33:13.172Z,32096
2016-05-20T06:34:13.345Z,32672
2016-05-20T06:35:13.505Z,29088
2016-05-20T06:36:13.508Z,24960
2016-05-20T06:37:13.214Z,23008
2016-05-20T06:38:13.528Z,22304
2016-05-20T06:39:13.391Z,23968
2016-05-20T06:40:14.300Z,25664
2016-05-20T06:41:13.552Z,28032
2016-05-20T06:42:13.570Z,29024
2016-05-20T06:43:13.402Z,30816
2016-05-20T06:44:13.576Z,33152
2016-05-20T06:45:13.266Z,37472
2016-05-20T06:46:13.581Z,42016
2016-05-20T06:47:13.599Z,44352
2016-05-20T06:48:13.462Z,46912
2016-05-20T06:49:13.464Z,46592
2016-05-20T06:50:13.623Z,45152
2016-05-20T06:51:13.641Z,45792
2016-05-20T06:52:13.644Z,41952
2016-05-20T06:53:13.678Z,39520
2016-05-20T06:54:13.353Z,43648
2016-05-20T06:55:13.902Z,45376
2016-05-20T06:56:13.374Z,45120
2016-05-20T06:57:13.689Z,43744
2016-05-20T06:58:13.692Z,41760
2016-05-20T06:59:13.695Z,41248
2016-05-20T07:00:13.540Z,42080
2016-05-20T07:01:13.715Z,45504
2016-05-20T07:02:13.734Z,44448
2016-05-20T07:03:13.736Z,45152
2016-05-20T07:04:13.442Z,45760
2016-05-20T07:05:13.600Z,45696
2016-05-20T07:06:13.760Z,45664
2016-05-20T07:07:13.778Z,45440
2016-05-20T07:08:13.781Z,45696
2016-05-20T07:09:13.799Z,45600
2016-05-20T07:10:14.130Z,45600
2016-05-20T07:11:13.820Z,46016
2016-05-20T07:12:13.839Z,42560
2016-05-20T07:13:13.841Z,41248
2016-05-20T07:14:13.844Z,44384
2016-05-20T07:15:13.706Z,46944
2016-05-20T07:16:13.850Z,45504
2016-05-20T07:17:14.086Z,48288
2016-05-20T07:18:13.730Z,50144
2016-05-20T07:19:13.889Z,50016
2016-05-20T07:20:13.751Z,50016
2016-05-20T07:21:13.909Z,49792
2016-05-20T07:22:13.912Z,51392
2016-05-20T07:23:13.946Z,53088
2016-05-20T07:24:13.777Z,45344
2016-05-20T07:25:14.639Z,35488
2016-05-20T07:26:13.970Z,46400
2016-05-20T07:27:25.785Z,45568
2016-05-20T07:28:13.835Z,46912
2016-05-20T07:29:14.009Z,46816
2016-05-20T07:30:14.012Z,51872
2016-05-20T07:31:13.874Z,53984
2016-05-20T07:32:13.862Z,54272
2016-05-20T07:33:13.879Z,54208
2016-05-20T07:34:14.054Z,50528
2016-05-20T07:35:14.073Z,49760
2016-05-20T07:36:14.122Z,53440
2016-05-20T07:37:13.921Z,53920
2016-05-20T07:38:14.142Z,56512
2016-05-20T07:39:14.099Z,58208
2016-05-20T07:40:14.023Z,58272
2016-05-20T07:41:13.963Z,58464
2016-05-20T07:42:14.138Z,57888
2016-05-20T07:43:14.156Z,55616
2016-05-20T07:44:14.159Z,53024
2016-05-20T07:45:14.161Z,53344
2016-05-20T07:46:14.180Z,48096
2016-05-20T07:47:14.027Z,44352
2016-05-20T07:48:14.201Z,43232
2016-05-20T07:49:14.204Z,45920
2016-05-20T07:50:14.238Z,48928
2016-05-20T07:51:14.225Z,46368
2016-05-20T07:52:14.244Z,46496
2016-05-20T07:53:14.089Z,47840
2016-05-20T07:54:14.264Z,49536
2016-05-20T07:55:14.298Z,50848
2016-05-20T07:56:14.129Z,48448
2016-05-20T07:57:14.303Z,48448
2016-05-20T07:58:14.165Z,49088
2016-05-20T07:59:14.340Z,49056
2016-05-20T08:00:14.343Z,48800
2016-05-20T08:01:14.564Z,48992
2016-05-20T08:02:14.036Z,48640
2016-05-20T08:03:14.382Z,49184
2016-05-20T08:04:14.228Z,49536
2016-05-20T08:05:14.387Z,51104
2016-05-20T08:06:14.250Z,48224
2016-05-20T08:07:14.252Z,46816
2016-05-20T08:08:14.255Z,50400
2016-05-20T08:09:14.289Z,48928
2016-05-20T08:10:14.979Z,49600
2016-05-20T08:11:14.606Z,51168
2016-05-20T08:12:14.484Z,51104
2016-05-20T08:13:14.487Z,51680
2016-05-20T08:14:14.489Z,12716
2016-05-20T08:15:14.352Z,11656
2016-05-20T08:16:14.527Z,32128
2016-05-20T08:17:33.422Z,29248
2016-05-20T08:18:14.532Z,7996
2016-05-20T08:19:14.394Z,52512
2016-05-20T08:20:30.334Z,52928
2016-05-20T08:21:14.415Z,13464
2016-05-20T08:22:14.574Z,11880
2016-05-20T08:23:14.592Z,49824
2016-05-20T08:24:14.626Z,47776
2016-05-20T08:25:30.316Z,44672
2016-05-20T08:26:15.085Z,46656
2016-05-20T08:27:14.321Z,9744
2016-05-20T08:28:14.481Z,6688
2016-05-20T08:29:14.498Z,11496
2016-05-20T08:30:14.517Z,46496
2016-05-20T08:31:14.660Z,46720
2016-05-20T08:32:14.662Z,20192
2016-05-20T08:33:14.698Z,10020
2016-05-20T08:34:14.715Z,10392
2016-05-20T08:35:14.734Z,12560
2016-05-20T08:36:14.705Z,10200
2016-05-20T08:37:17.755Z,12896
2016-05-20T08:38:14.929Z,9320
2016-05-20T08:39:14.760Z,6556
2016-05-20T08:40:15.575Z,6368
2016-05-20T08:41:17.234Z,6932
2016-05-20T08:42:15.097Z,6784
2016-05-20T08:43:14.787Z,6564
2016-05-20T08:44:14.774Z,6316
2016-05-20T08:45:14.791Z,6852
2016-05-20T08:46:14.685Z,8852
2016-05-20T08:47:15.891Z,8608
2016-05-20T08:48:14.660Z,8524
2016-05-20T08:49:14.834Z,7996
2016-05-20T08:50:14.836Z,7852
2016-05-20T08:51:14.839Z,8540
2016-05-20T08:52:14.702Z,9128
2016-05-20T08:53:14.844Z,8484
2016-05-20T08:54:14.879Z,8192
2016-05-20T08:55:15.053Z,7832
2016-05-20T08:56:14.885Z,7928
2016-05-20T08:57:14.887Z,9340
2016-05-20T08:58:16.061Z,9584
2016-05-20T08:59:14.893Z,8772
2016-05-20T09:00:14.910Z,9192
2016-05-20T09:01:14.913Z,8580
2016-05-20T09:02:14.618Z,7752
2016-05-20T09:03:15.621Z,8108
2016-05-20T09:04:14.953Z,7580
2016-05-20T09:05:14.971Z,7156
2016-05-20T09:06:14.958Z,6732
2016-05-20T09:07:14.991Z,6268
2016-05-20T09:08:14.948Z,5804
2016-05-20T09:09:15.012Z,5588
2016-05-20T09:10:15.203Z,5488
2016-05-20T09:11:14.987Z,5380
2016-05-20T09:12:14.989Z,5236
2016-05-20T09:13:15.008Z,5236
2016-05-20T09:14:15.026Z,4660
2016-05-20T09:15:15.028Z,4360
2016-05-20T09:16:14.719Z,5588
2016-05-20T09:17:15.034Z,5264
2016-05-20T09:18:15.084Z,5440
2016-05-20T09:19:15.072Z,6496
2016-05-20T09:20:14.917Z,6484
2016-05-20T09:21:14.905Z,5772
2016-05-20T09:22:15.079Z,5924
2016-05-20T09:23:17.332Z,5532
2016-05-20T09:24:14.928Z,5224
2016-05-20T09:25:15.321Z,5076
2016-05-20T09:26:15.090Z,5124
2016-05-20T09:27:14.967Z,5068
2016-05-20T09:28:15.111Z,5104
2016-05-20T09:29:14.957Z,5312
2016-05-20T09:30:15.116Z,5276
2016-05-20T09:31:15.151Z,5108
2016-05-20T09:32:15.153Z,4936
2016-05-20T09:33:14.843Z,4836
2016-05-20T09:34:16.768Z,4684
2016-05-20T09:35:15.192Z,4700
2016-05-20T09:36:15.023Z,5028
2016-05-20T09:37:14.869Z,5312
2016-05-20T09:38:15.044Z,5640
2016-05-20T09:39:15.031Z,6128
2016-05-20T09:40:15.736Z,6288
2016-05-20T09:41:15.192Z,5968
2016-05-20T09:42:15.195Z,6608
2016-05-20T09:43:15.214Z,6500
2016-05-20T09:44:15.576Z,6512
2016-05-20T09:45:15.063Z,6448
2016-05-20T09:46:15.222Z,6472
2016-05-20T09:47:15.239Z,5980
2016-05-20T09:48:15.227Z,5692
2016-05-20T09:49:15.714Z,5468
2016-05-20T09:50:15.248Z,5316
2016-05-20T09:51:15.922Z,5544
2016-05-20T09:52:15.269Z,5648
2016-05-20T09:53:15.256Z,5464
2016-05-20T09:54:16.055Z,5368
2016-05-20T09:55:15.136Z,5164
2016-05-20T09:56:15.279Z,5080
2016-05-20T09:57:15.299Z,4668
2016-05-20T09:58:15.301Z,4228
2016-05-20T09:59:16.865Z,3948
2016-05-20T10:00:15.306Z,3608
2016-05-20T10:01:15.168Z,3596
2016-05-20T10:02:15.155Z,3724
2016-05-20T10:03:15.158Z,3696
2016-05-20T10:04:16.957Z,3776
2016-05-20T10:05:15.179Z,3868
2016-05-20T10:06:15.323Z,4536
2016-05-20T10:07:15.341Z,5132
2016-05-20T10:08:15.343Z,5472
2016-05-20T10:09:16.487Z,5312
2016-05-20T10:10:15.676Z,5084
2016-05-20T10:11:15.211Z,4912
2016-05-20T10:12:15.370Z,4852
2016-05-20T10:13:15.216Z,5068
2016-05-20T10:14:15.219Z,5288
2016-05-20T10:15:15.378Z,5412
2016-05-20T10:16:15.396Z,5568
2016-05-20T10:17:15.399Z,5688
2016-05-20T10:18:15.402Z,5168
2016-05-20T10:19:15.388Z,5120
2016-05-20T10:20:15.407Z,5372
2016-05-20T10:21:15.253Z,5464
2016-05-20T10:22:15.412Z,6000
2016-05-20T10:23:15.102Z,5500
2016-05-20T10:24:15.449Z,5752
2016-05-20T10:25:15.389Z,5984
2016-05-20T10:26:15.329Z,6024
2016-05-20T10:27:15.222Z,5732
2016-05-20T10:28:15.474Z,5576
2016-05-20T10:29:15.290Z,6072
2016-05-20T10:30:15.559Z,6080
2016-05-20T10:31:15.468Z,6160
2016-05-20T10:32:15.470Z,6300
2016-05-20T10:33:15.473Z,6568
2016-05-20T10:34:15.538Z,6428
2016-05-20T10:35:15.463Z,6028
2016-05-20T10:36:15.481Z,5352
2016-05-20T10:37:15.484Z,4952
2016-05-20T10:38:15.362Z,5280
2016-05-20T10:39:15.520Z,5260
2016-05-20T10:40:15.195Z,5368
2016-05-20T10:41:15.214Z,5528
2016-05-20T10:42:15.497Z,5444
2016-05-20T10:43:15.376Z,5480
2016-05-20T10:44:15.517Z,5612
2016-05-20T10:45:15.365Z,5560
2016-05-20T10:46:15.415Z,5168
2016-05-20T10:47:15.542Z,4596
2016-05-20T10:48:15.545Z,4372
2016-05-20T10:49:15.548Z,4224
2016-05-20T10:50:15.566Z,4136
2016-05-20T10:51:15.427Z,4196
2016-05-20T10:52:15.415Z,4076
2016-05-20T10:53:15.621Z,4056
2016-05-20T10:54:15.264Z,4000
2016-05-20T10:55:15.813Z,3836
2016-05-20T10:56:15.582Z,3768
2016-05-20T10:57:15.585Z,3768
2016-05-20T10:58:15.588Z,3756
2016-05-20T10:59:15.763Z,3772
2016-05-20T11:00:15.592Z,3752
2016-05-20T11:01:15.454Z,3780
2016-05-20T11:02:15.613Z,3880
2016-05-20T11:03:15.663Z,3972
2016-05-20T11:04:15.447Z,4052
2016-05-20T11:05:15.543Z,4116
2016-05-20T11:06:15.484Z,4144
2016-05-20T11:07:15.627Z,4172
2016-05-20T11:08:15.489Z,4172
2016-05-20T11:09:15.632Z,4160
2016-05-20T11:10:16.448Z,4136
2016-05-20T11:11:15.795Z,4168
2016-05-20T11:12:15.657Z,4228
2016-05-20T11:13:15.659Z,4232
2016-05-20T11:14:15.348Z,4240
2016-05-20T11:15:15.711Z,4208
2016-05-20T11:16:15.526Z,4120
2016-05-20T11:17:17.732Z,4076
2016-05-20T11:18:15.641Z,3952
2016-05-20T11:19:15.722Z,3756
2016-05-20T11:20:15.522Z,3620
2016-05-20T11:21:15.696Z,3476
2016-05-20T11:22:15.605Z,3508
2016-05-20T11:23:15.419Z,3444
2016-05-20T11:24:15.704Z,3340
2016-05-20T11:25:15.722Z,3208
2016-05-20T11:26:15.553Z,3096
2016-05-20T11:27:15.727Z,3032
2016-05-20T11:28:15.777Z,2972
2016-05-20T11:29:15.405Z,2976
2016-05-20T11:30:15.721Z,2976
2016-05-20T11:31:15.724Z,3020
2016-05-20T11:32:15.616Z,2348
2016-05-20T11:33:15.635Z,2940
2016-05-20T11:34:15.731Z,2872
2016-05-20T11:35:15.749Z,2820
2016-05-20T11:36:15.768Z,2792
2016-05-20T11:37:15.770Z,2832
2016-05-20T11:38:15.601Z,2776
2016-05-20T11:39:15.775Z,3020
2016-05-20T11:40:16.340Z,3488
2016-05-20T11:41:15.781Z,3492
2016-05-20T11:42:15.612Z,3156
2016-05-20T11:43:15.645Z,2896
2016-05-20T11:44:15.774Z,2784
2016-05-20T11:45:15.807Z,2708
2016-05-20T11:46:15.794Z,2648
2016-05-20T11:47:15.625Z,2652
2016-05-20T11:48:15.800Z,2660
2016-05-20T11:49:15.803Z,2660
2016-05-20T11:50:15.649Z,2676
2016-05-20T11:51:15.840Z,2708
2016-05-20T11:52:15.841Z,2720
2016-05-20T11:53:15.813Z,2724
2016-05-20T11:54:15.816Z,2732
2016-05-20T11:55:15.522Z,2752
2016-05-20T11:56:15.822Z,2764
2016-05-20T11:57:15.855Z,2756
2016-05-20T11:58:15.686Z,2768
2016-05-20T11:59:15.720Z,2756
2016-05-20T12:00:15.863Z,2756
2016-05-20T12:01:15.710Z,2752
2016-05-20T12:02:15.853Z,2744
2016-05-20T12:03:15.559Z,2756
2016-05-20T12:04:15.874Z,2760
2016-05-20T12:05:15.830Z,2752
2016-05-20T12:06:15.738Z,2756
2016-05-20T12:07:15.866Z,2764
2016-05-20T12:08:15.884Z,2768
2016-05-20T12:09:15.888Z,2824
2016-05-20T12:10:15.796Z,2876
2016-05-20T12:11:15.737Z,2852
2016-05-20T12:12:15.724Z,2768
2016-05-20T12:13:15.883Z,2572
2016-05-20T12:14:15.885Z,3132
2016-05-20T12:15:15.903Z,3124
2016-05-20T12:16:15.906Z,2564
2016-05-20T12:17:15.940Z,2968
2016-05-20T12:18:15.756Z,3028
2016-05-20T12:19:15.914Z,3084
2016-05-20T12:20:15.917Z,3228
2016-05-20T12:21:15.919Z,3304
2016-05-20T12:22:15.766Z,3292
2016-05-20T12:23:15.784Z,3396
2016-05-20T12:24:15.787Z,3384
2016-05-20T12:25:16.228Z,3496
2016-05-20T12:26:15.949Z,3664
2016-05-20T12:27:15.795Z,3860
2016-05-20T12:28:15.939Z,4160
2016-05-20T12:29:15.957Z,4432
2016-05-20T12:30:15.960Z,4652
2016-05-20T12:31:15.963Z,4672
2016-05-20T12:32:15.949Z,4756
2016-05-20T12:33:15.968Z,4716
2016-05-20T12:34:15.986Z,4456
2016-05-20T12:35:15.974Z,4184
2016-05-20T12:36:15.976Z,3964
2016-05-20T12:37:15.666Z,3900
2016-05-20T12:38:15.981Z,3860
2016-05-20T12:39:15.985Z,3848
2016-05-20T12:40:15.862Z,3856
2016-05-20T12:41:15.989Z,3856
2016-05-20T12:42:16.024Z,3760
2016-05-20T12:43:16.010Z,3648
2016-05-20T12:44:15.998Z,3548
2016-05-20T12:45:16.000Z,3392
2016-05-20T12:46:16.003Z,3272
2016-05-20T12:47:16.036Z,3280
2016-05-20T12:48:16.039Z,3300
2016-05-20T12:49:15.854Z,3336
2016-05-20T12:50:16.029Z,3392
2016-05-20T12:51:16.048Z,3492
2016-05-20T12:52:16.034Z,3560
2016-05-20T12:53:16.053Z,3524
2016-05-20T12:54:15.900Z,3512
2016-05-20T12:55:15.918Z,3520
2016-05-20T12:56:15.888Z,3548
2016-05-20T12:57:16.063Z,3564
2016-05-20T12:58:16.051Z,3548
2016-05-20T12:59:16.053Z,3556
2016-05-20T13:00:16.056Z,3500
2016-05-20T13:01:15.918Z,3412
2016-05-20T13:02:15.921Z,3400
2016-05-20T13:03:16.080Z,3336
2016-05-20T13:04:16.083Z,3244
2016-05-20T13:05:16.085Z,3208
2016-05-20T13:06:16.087Z,3184
2016-05-20T13:07:15.950Z,3172
2016-05-20T13:08:16.093Z,3156
2016-05-20T13:09:16.095Z,3132
2016-05-20T13:10:16.411Z,3128
2016-05-20T13:11:16.101Z,3128
2016-05-20T13:12:15.948Z,3156
2016-05-20T13:13:15.951Z,3164
2016-05-20T13:14:16.109Z,3128
2016-05-20T13:15:15.971Z,3136
2016-05-20T13:16:16.131Z,3188
2016-05-20T13:17:15.976Z,3256
2016-05-20T13:18:16.136Z,3272
2016-05-20T13:19:16.139Z,3240
2016-05-20T13:20:16.126Z,3188
2016-05-20T13:21:16.144Z,3160
2016-05-20T13:22:16.146Z,3148
2016-05-20T13:23:15.993Z,3132
2016-05-20T13:24:16.152Z,3080
2016-05-20T13:25:15.935Z,3040
2016-05-20T13:26:16.142Z,2960
2016-05-20T13:27:16.160Z,2920
2016-05-20T13:28:16.178Z,2892
2016-05-20T13:29:16.025Z,2868
2016-05-20T13:30:16.183Z,2860
2016-05-20T13:31:16.030Z,2844
2016-05-20T13:32:16.174Z,2804
2016-05-20T13:33:16.191Z,2744